createdAt,value
2023-09-13T00:01:51.348Z,12.50
2023-09-13T00:07:01.504Z,13.00
2023-09-13T00:12:12.390Z,13.60
2023-09-13T00:17:25.155Z,12.90
2023-09-13T00:22:34.716Z,12.80
2023-09-13T00:27:44.360Z,12.90
2023-09-13T00:32:54.268Z,12.30
2023-09-13T00:38:04.277Z,12.40
2023-09-13T00:43:14.236Z,12.20
2023-09-13T00:48:26.046Z,12.20
2023-09-13T00:53:37.734Z,12.60
2023-09-13T00:58:49.120Z,12.90
2023-09-13T01:04:01.195Z,11.90
2023-09-13T01:09:11.405Z,11.70
2023-09-13T01:14:23.037Z,11.40
2023-09-13T01:19:58.983Z,12.60
2023-09-13T01:25:56.893Z,12.60
2023-09-13T01:31:09.547Z,13.20
2023-09-13T01:36:19.465Z,12.80
2023-09-13T01:41:39.116Z,14.00
2023-09-13T01:46:51.604Z,13.20
2023-09-13T01:52:02.165Z,11.00
2023-09-13T01:57:12.194Z,12.30
2023-09-13T02:02:22.191Z,11.30
2023-09-13T02:07:32.191Z,13.50
2023-09-13T02:12:42.052Z,13.00
2023-09-13T02:17:51.896Z,11.50
2023-09-13T02:23:01.539Z,12.10
2023-09-13T02:28:11.857Z,11.50
2023-09-13T02:33:21.616Z,12.00
2023-09-13T02:38:31.185Z,12.70
2023-09-13T02:43:42.408Z,12.80
2023-09-13T02:48:52.921Z,13.00
2023-09-13T02:54:02.978Z,13.00
2023-09-13T02:59:12.866Z,12.30
2023-09-13T03:04:22.640Z,13.00
2023-09-13T03:09:32.279Z,13.20
2023-09-13T03:14:42.040Z,13.10
2023-09-13T03:19:51.682Z,12.90
2023-09-13T03:25:01.486Z,13.10
2023-09-13T03:30:13.573Z,13.50
2023-09-13T03:35:23.700Z,13.00
2023-09-13T03:40:33.738Z,12.60
2023-09-13T03:45:43.572Z,13.70
2023-09-13T03:50:53.787Z,13.00
2023-09-13T03:56:04.417Z,13.80
2023-09-13T04:01:14.593Z,14.40
2023-09-13T04:06:26.883Z,13.90
2023-09-13T04:11:36.571Z,14.20
2023-09-13T04:16:46.570Z,13.90
2023-09-13T04:21:56.774Z,12.20
2023-09-13T04:27:06.849Z,13.70
2023-09-13T04:32:16.875Z,12.90
2023-09-13T04:37:28.257Z,14.00
2023-09-13T04:42:49.760Z,14.50
2023-09-13T04:47:59.526Z,13.70
2023-09-13T04:53:10.019Z,13.70
2023-09-13T04:58:19.855Z,13.30
2023-09-13T05:03:30.009Z,13.00
2023-09-13T05:08:40.788Z,13.90
2023-09-13T05:13:51.409Z,13.90
2023-09-13T05:19:01.443Z,13.70
2023-09-13T05:24:12.427Z,13.60
2023-09-13T05:29:22.889Z,14.90
2023-09-13T05:34:33.301Z,15.40
2023-09-13T05:39:43.593Z,15.80
2023-09-13T05:44:53.507Z,15.20
2023-09-13T05:50:03.439Z,15.40
2023-09-13T05:55:14.366Z,14.20
2023-09-13T06:00:24.362Z,16.10
2023-09-13T06:05:34.284Z,17.70
2023-09-13T06:10:44.238Z,17.10
2023-09-13T06:15:54.310Z,15.80
2023-09-13T06:21:05.233Z,14.30
2023-09-13T06:26:15.174Z,14.60
2023-09-13T06:31:33.486Z,15.10
2023-09-13T06:36:44.844Z,14.70
2023-09-13T06:41:55.354Z,14.70
2023-09-13T06:47:05.864Z,15.00
2023-09-13T06:52:16.897Z,14.80
2023-09-13T06:57:30.548Z,14.10
2023-09-13T07:02:45.297Z,14.00
2023-09-13T07:07:55.971Z,14.30
2023-09-13T07:13:06.856Z,15.20
2023-09-13T07:18:16.824Z,14.60
2023-09-13T07:23:26.814Z,15.10
2023-09-13T07:28:36.992Z,13.10
2023-09-13T07:33:48.170Z,12.20
2023-09-13T07:38:58.308Z,13.10
2023-09-13T07:44:08.879Z,14.20
2023-09-13T07:49:18.876Z,13.50
2023-09-13T07:54:29.236Z,14.40
2023-09-13T07:59:40.457Z,14.50
2023-09-13T08:04:51.354Z,13.80
2023-09-13T08:10:02.985Z,13.70
2023-09-13T08:15:15.452Z,14.60
2023-09-13T08:20:25.503Z,14.80
2023-09-13T08:25:35.220Z,14.20
2023-09-13T08:30:44.972Z,14.50
2023-09-13T08:35:54.839Z,17.10
2023-09-13T08:41:05.494Z,15.30
2023-09-13T08:46:16.984Z,16.80
2023-09-13T08:51:28.638Z,16.20
2023-09-13T08:56:44.028Z,16.40
2023-09-13T09:01:56.592Z,24.40
2023-09-13T09:07:07.922Z,17.70
2023-09-13T09:12:20.262Z,14.40
2023-09-13T09:17:31.659Z,13.10
2023-09-13T09:22:43.752Z,12.10
2023-09-13T09:27:53.545Z,13.40
2023-09-13T09:33:08.607Z,10.40
2023-09-13T09:38:30.269Z,10.50
2023-09-13T09:43:40.313Z,10.20
2023-09-13T09:48:50.416Z,10.20
2023-09-13T09:54:00.915Z,9.40
2023-09-13T09:59:11.441Z,9.30
2023-09-13T10:04:21.183Z,9.90
2023-09-13T10:09:42.802Z,9.60
2023-09-13T10:14:52.553Z,9.50
2023-09-13T10:20:03.272Z,9.40
2023-09-13T10:25:20.061Z,9.60
2023-09-13T10:30:34.926Z,9.30
2023-09-13T10:35:51.089Z,9.70
2023-09-13T10:41:08.050Z,9.50
2023-09-13T10:46:19.237Z,10.70
2023-09-13T10:51:32.016Z,10.60
2023-09-13T10:56:42.521Z,9.90
2023-09-13T11:01:53.321Z,10.20
2023-09-13T11:07:06.341Z,9.20
2023-09-13T11:12:17.636Z,10.00
2023-09-13T11:17:45.694Z,9.50
2023-09-13T11:28:46.252Z,8.80
2023-09-13T11:34:01.921Z,8.50
2023-09-13T11:39:13.045Z,8.90
2023-09-13T11:44:33.142Z,9.60
2023-09-13T11:50:02.682Z,9.40
2023-09-13T11:55:34.792Z,9.20
2023-09-13T12:00:49.543Z,9.60
2023-09-13T12:06:17.869Z,9.30
2023-09-13T12:11:32.575Z,8.80
2023-09-13T12:16:44.577Z,8.60
2023-09-13T12:21:54.793Z,9.00
2023-09-13T12:27:06.991Z,8.90
2023-09-13T12:32:18.336Z,7.10
2023-09-13T12:37:28.286Z,9.00
2023-09-13T12:42:42.142Z,8.60
2023-09-13T12:47:53.660Z,8.40
2023-09-13T12:53:04.049Z,8.70
2023-09-13T12:58:13.826Z,8.80
2023-09-13T13:03:26.673Z,12.90
2023-09-13T13:08:43.755Z,9.10
2023-09-13T13:13:54.241Z,9.10
2023-09-13T13:19:21.922Z,9.00
2023-09-13T13:24:34.055Z,9.60
2023-09-13T13:29:44.947Z,10.50
2023-09-13T13:34:54.786Z,9.40
2023-09-13T13:40:05.546Z,9.00
2023-09-13T13:45:16.148Z,8.70
2023-09-13T13:50:26.003Z,9.60
2023-09-13T13:55:36.034Z,9.50
2023-09-13T14:00:46.345Z,9.80
2023-09-13T14:05:57.127Z,9.30
2023-09-13T14:11:07.357Z,9.60
2023-09-13T14:16:17.126Z,8.40
2023-09-13T14:21:26.916Z,8.70
2023-09-13T14:26:37.268Z,9.30
2023-09-13T14:31:47.593Z,9.20
2023-09-13T14:36:57.407Z,9.90
2023-09-13T14:42:07.637Z,9.50
2023-09-13T14:47:18.078Z,9.70
2023-09-13T14:52:28.193Z,8.50
2023-09-13T14:57:39.349Z,8.60
2023-09-13T15:02:49.498Z,9.40
2023-09-13T15:07:59.764Z,10.80
2023-09-13T15:13:10.406Z,11.40
2023-09-13T15:18:20.200Z,11.10
2023-09-13T15:23:29.939Z,10.50
2023-09-13T15:28:39.936Z,10.70
2023-09-13T15:33:49.637Z,10.40
2023-09-13T15:39:01.047Z,10.50
2023-09-13T15:44:12.439Z,11.70
2023-09-13T15:49:28.409Z,9.20
2023-09-13T15:54:38.100Z,9.70
2023-09-13T15:59:49.252Z,9.40
2023-09-13T16:04:59.228Z,7.70
2023-09-13T16:10:12.175Z,7.60
2023-09-13T16:15:22.670Z,7.80
2023-09-13T16:20:32.467Z,6.50
2023-09-13T16:25:42.206Z,7.00
2023-09-13T16:30:52.390Z,5.80
2023-09-13T16:36:02.444Z,6.20
2023-09-13T16:41:12.390Z,6.60
2023-09-13T16:46:22.278Z,6.10
2023-09-13T16:51:32.107Z,6.50
2023-09-13T16:56:42.006Z,6.80
2023-09-13T17:01:52.044Z,6.80
2023-09-13T17:07:02.147Z,6.40
2023-09-13T17:12:13.118Z,5.60
2023-09-13T17:17:24.749Z,7.90
2023-09-13T17:22:35.129Z,8.80
2023-09-13T17:27:45.070Z,8.20
2023-09-13T17:32:55.250Z,7.30
2023-09-13T17:38:05.947Z,10.60
2023-09-13T17:43:16.278Z,11.20
2023-09-13T17:48:26.346Z,10.30
2023-09-13T17:53:36.112Z,8.90
2023-09-13T17:58:46.162Z,8.70
2023-09-13T18:03:56.256Z,9.90
2023-09-13T18:09:06.425Z,8.50
2023-09-13T18:14:16.415Z,6.30
2023-09-13T18:19:26.275Z,6.00
2023-09-13T18:24:39.444Z,6.50
2023-09-13T18:29:51.022Z,6.40
2023-09-13T18:35:00.797Z,6.60
2023-09-13T18:40:13.655Z,6.10
2023-09-13T18:45:23.688Z,6.20
2023-09-13T18:50:34.048Z,6.70
2023-09-13T18:55:47.054Z,7.70
2023-09-13T19:01:02.708Z,7.70
2023-09-13T19:06:13.623Z,7.50
2023-09-13T19:11:24.733Z,7.30
2023-09-13T19:16:35.371Z,7.40
2023-09-13T19:21:45.161Z,6.90
2023-09-13T19:26:55.508Z,7.60
2023-09-13T19:32:05.873Z,7.40
2023-09-13T19:37:15.684Z,7.80
2023-09-13T19:42:25.513Z,7.60
2023-09-13T19:47:35.628Z,7.70
2023-09-13T19:52:46.359Z,8.40
2023-09-13T19:57:57.769Z,8.30
2023-09-13T20:03:08.302Z,8.20
2023-09-13T20:08:18.184Z,8.60
2023-09-13T20:13:27.971Z,8.00
2023-09-13T20:18:38.037Z,8.60
2023-09-13T20:23:48.526Z,8.90
2023-09-13T20:28:58.552Z,9.00
2023-09-13T20:34:08.919Z,8.70
2023-09-13T20:39:18.620Z,9.60
2023-09-13T20:44:28.359Z,8.40
2023-09-13T20:49:38.215Z,9.10
2023-09-13T20:54:48.184Z,9.70
2023-09-13T20:59:58.099Z,8.20
2023-09-13T21:05:08.748Z,9.10
2023-09-13T21:10:18.766Z,8.10
2023-09-13T21:15:28.709Z,8.70
2023-09-13T21:20:38.373Z,7.20
2023-09-13T21:25:48.256Z,5.60
2023-09-13T21:31:02.287Z,5.80
2023-09-13T21:36:12.436Z,6.20
2023-09-13T21:41:22.288Z,6.00
2023-09-13T21:46:31.978Z,6.40
2023-09-13T21:51:41.746Z,5.80
2023-09-13T21:56:51.798Z,5.50
2023-09-13T22:02:01.446Z,5.80
2023-09-13T22:07:11.396Z,6.50
2023-09-13T22:12:21.218Z,5.20
2023-09-13T22:17:31.299Z,6.40
2023-09-13T22:22:41.159Z,6.50
2023-09-13T22:27:50.883Z,5.70
2023-09-13T22:33:00.627Z,4.30
2023-09-13T22:38:12.548Z,3.80
2023-09-13T22:43:22.637Z,4.10
2023-09-13T22:48:32.232Z,3.30
2023-09-13T22:53:41.886Z,3.30
2023-09-13T22:58:51.628Z,2.70
2023-09-13T23:04:01.762Z,3.20
2023-09-13T23:09:12.667Z,3.10
2023-09-13T23:14:22.291Z,2.40
2023-09-13T23:19:31.908Z,2.50
2023-09-13T23:24:41.508Z,2.30
2023-09-13T23:29:50.989Z,2.10
2023-09-13T23:35:01.060Z,1.80
2023-09-13T23:40:13.471Z,2.10
2023-09-13T23:45:23.360Z,2.10
2023-09-13T23:50:33.151Z,1.90
2023-09-13T23:55:42.959Z,1.50
